createdAt,value
2017-12-30T00:00:14.098Z,994.33
2017-12-30T00:00:40.192Z,994.26
2017-12-30T00:01:06.292Z,994.36
2017-12-30T00:01:32.395Z,994.32
2017-12-30T00:01:58.512Z,994.34
2017-12-30T00:02:24.612Z,994.34
2017-12-30T00:02:50.719Z,994.38
2017-12-30T00:03:16.817Z,994.33
2017-12-30T00:03:42.914Z,994.35
2017-12-30T00:04:09.021Z,994.29
2017-12-30T00:04:35.122Z,994.27
2017-12-30T00:05:01.221Z,994.31
2017-12-30T00:05:27.343Z,994.23
2017-12-30T00:05:53.440Z,994.24
2017-12-30T00:06:19.543Z,994.28
2017-12-30T00:06:45.643Z,994.23
2017-12-30T00:07:11.739Z,994.29
2017-12-30T00:07:37.844Z,994.29
2017-12-30T00:08:03.962Z,994.29
2017-12-30T00:08:30.062Z,994.29
2017-12-30T00:08:56.166Z,994.33
2017-12-30T00:09:22.262Z,994.32
2017-12-30T00:09:48.361Z,994.32
2017-12-30T00:10:14.465Z,994.28
2017-12-30T00:10:40.579Z,994.35
2017-12-30T00:11:06.695Z,994.43
2017-12-30T00:11:32.794Z,994.33
2017-12-30T00:11:58.898Z,994.35
2017-12-30T00:12:24.990Z,994.4
2017-12-30T00:12:51.100Z,994.41
2017-12-30T00:13:17.196Z,994.35
2017-12-30T00:13:43.297Z,994.5
2017-12-30T00:14:09.411Z,994.32
2017-12-30T00:14:35.522Z,994.28
2017-12-30T00:15:01.623Z,994.26
2017-12-30T00:15:27.718Z,994.37
2017-12-30T00:15:53.814Z,994.2
2017-12-30T00:16:19.919Z,994.33
2017-12-30T00:16:46.014Z,994.32
2017-12-30T00:17:12.114Z,994.29
2017-12-30T00:17:38.233Z,994.29
2017-12-30T00:18:04.334Z,994.36
2017-12-30T00:18:30.431Z,994.3
2017-12-30T00:18:56.533Z,994.31
2017-12-30T00:19:22.633Z,994.35
2017-12-30T00:19:48.737Z,994.35
2017-12-30T00:20:14.837Z,994.35
2017-12-30T00:20:40.940Z,994.36
2017-12-30T00:21:07.039Z,994.37
2017-12-30T00:21:33.140Z,994.41
2017-12-30T00:21:59.242Z,994.42
2017-12-30T00:22:25.340Z,994.46
2017-12-30T00:22:51.445Z,994.47
2017-12-30T00:23:17.541Z,994.45
2017-12-30T00:23:43.642Z,994.49
2017-12-30T00:24:09.742Z,994.29
2017-12-30T00:24:35.842Z,994.41
2017-12-30T00:25:01.948Z,994.32
2017-12-30T00:25:28.049Z,994.29
2017-12-30T00:25:54.145Z,994.32
2017-12-30T00:26:20.250Z,994.28
2017-12-30T00:26:46.348Z,994.28
2017-12-30T00:27:12.448Z,994.28
2017-12-30T00:27:38.549Z,994.32
2017-12-30T00:28:04.653Z,994.34
2017-12-30T00:28:30.752Z,994.38
2017-12-30T00:28:56.852Z,994.37
2017-12-30T00:29:22.954Z,994.5
2017-12-30T00:29:49.052Z,994.39
2017-12-30T00:30:15.153Z,994.38
2017-12-30T00:30:41.253Z,994.3
2017-12-30T00:31:07.353Z,994.3
2017-12-30T00:31:33.457Z,994.31
2017-12-30T00:31:59.557Z,994.39
2017-12-30T00:32:25.653Z,994.29
2017-12-30T00:32:51.757Z,994.34
2017-12-30T00:33:17.859Z,994.36
2017-12-30T00:33:43.976Z,994.38
2017-12-30T00:34:10.079Z,994.42
2017-12-30T00:34:36.196Z,994.4
2017-12-30T00:35:02.296Z,994.44
2017-12-30T00:35:28.396Z,994.45
2017-12-30T00:35:54.496Z,994.54
2017-12-30T00:36:20.601Z,994.51
2017-12-30T00:36:46.697Z,994.5
2017-12-30T00:37:12.803Z,994.55
2017-12-30T00:37:38.899Z,994.52
2017-12-30T00:38:04.996Z,994.54
2017-12-30T00:38:31.094Z,994.54
2017-12-30T00:38:57.191Z,994.55
2017-12-30T00:39:23.289Z,994.55
2017-12-30T00:39:49.390Z,994.59
2017-12-30T00:40:15.494Z,994.56
2017-12-30T00:40:41.601Z,994.66
2017-12-30T00:41:07.698Z,994.62
2017-12-30T00:41:33.824Z,994.59
2017-12-30T00:41:59.939Z,994.64
2017-12-30T00:42:26.044Z,994.58
2017-12-30T00:42:52.161Z,994.52
2017-12-30T00:43:18.255Z,994.51
2017-12-30T00:43:44.357Z,994.53
2017-12-30T00:44:10.459Z,994.57
2017-12-30T00:44:36.588Z,994.49
2017-12-30T00:45:02.691Z,994.61
2017-12-30T00:45:28.791Z,994.56
2017-12-30T00:45:54.895Z,994.6
2017-12-30T00:46:21.008Z,994.53
2017-12-30T00:46:47.112Z,994.49
2017-12-30T00:47:13.212Z,994.52
2017-12-30T00:47:39.308Z,994.44
2017-12-30T00:48:05.408Z,994.52
2017-12-30T00:48:31.509Z,994.47
2017-12-30T00:48:57.624Z,994.45
2017-12-30T00:49:23.729Z,994.48
2017-12-30T00:49:49.827Z,994.41
2017-12-30T00:50:15.931Z,994.35
2017-12-30T00:50:42.030Z,994.37
2017-12-30T00:51:08.133Z,994.38
2017-12-30T00:51:34.233Z,994.39
2017-12-30T00:52:00.335Z,994.45
2017-12-30T00:52:26.440Z,994.43
2017-12-30T00:52:52.537Z,994.45
2017-12-30T00:53:18.640Z,994.41
2017-12-30T00:53:44.738Z,994.45
2017-12-30T00:54:10.838Z,994.42
2017-12-30T00:54:36.939Z,994.38
2017-12-30T00:55:03.040Z,994.39
2017-12-30T00:55:29.145Z,994.47
2017-12-30T00:55:55.251Z,994.34
2017-12-30T00:56:21.416Z,994.48
2017-12-30T00:56:47.483Z,994.58
2017-12-30T00:57:13.581Z,994.6
2017-12-30T00:57:39.680Z,994.64
2017-12-30T00:58:05.802Z,994.53
2017-12-30T00:58:31.900Z,994.57
2017-12-30T00:58:57.998Z,994.59
2017-12-30T00:59:24.143Z,994.62
2017-12-30T00:59:50.196Z,994.66
2017-12-30T01:00:16.299Z,994.74
2017-12-30T01:00:42.406Z,994.78
2017-12-30T01:01:08.501Z,994.75
2017-12-30T01:01:34.600Z,994.83
2017-12-30T01:02:00.711Z,994.84
2017-12-30T01:02:26.805Z,994.68
2017-12-30T01:02:52.903Z,994.68
2017-12-30T01:03:19.007Z,994.75
2017-12-30T01:03:45.120Z,994.76
2017-12-30T01:04:11.224Z,994.78
2017-12-30T01:04:37.350Z,994.82
2017-12-30T01:05:03.444Z,994.82
2017-12-30T01:05:29.548Z,994.9
2017-12-30T01:05:55.641Z,994.9
2017-12-30T01:06:21.743Z,994.86
2017-12-30T01:06:47.848Z,994.78
2017-12-30T01:07:13.948Z,994.76
2017-12-30T01:07:40.042Z,994.74
2017-12-30T01:08:06.139Z,994.79
2017-12-30T01:08:32.240Z,994.75
2017-12-30T01:08:58.340Z,994.79
2017-12-30T01:09:24.442Z,994.91
2017-12-30T01:09:50.539Z,994.87
2017-12-30T01:10:16.643Z,994.77
2017-12-30T01:10:42.742Z,994.71
2017-12-30T01:11:08.846Z,994.65
2017-12-30T01:11:34.948Z,994.61
2017-12-30T01:12:01.062Z,994.51
2017-12-30T01:12:27.167Z,994.48
2017-12-30T01:12:53.265Z,994.47
2017-12-30T01:13:19.361Z,994.5
2017-12-30T01:13:45.467Z,994.53
2017-12-30T01:14:11.564Z,994.56
2017-12-30T01:14:37.670Z,994.57
2017-12-30T01:15:03.776Z,994.63
2017-12-30T01:15:29.869Z,994.73
2017-12-30T01:15:55.974Z,994.57
2017-12-30T01:16:22.072Z,994.61
2017-12-30T01:16:48.187Z,994.67
2017-12-30T01:17:14.281Z,994.78
2017-12-30T01:17:40.384Z,994.76
2017-12-30T01:18:06.483Z,994.72
2017-12-30T01:18:32.588Z,994.67
2017-12-30T01:18:58.687Z,994.76
2017-12-30T01:19:24.794Z,994.72
2017-12-30T01:19:50.895Z,994.66
2017-12-30T01:20:16.999Z,994.68
2017-12-30T01:20:43.094Z,994.67
2017-12-30T01:21:09.201Z,994.66
2017-12-30T01:21:35.303Z,994.68
2017-12-30T01:22:01.414Z,994.6
2017-12-30T01:22:27.514Z,994.62
2017-12-30T01:22:53.611Z,994.63
2017-12-30T01:23:19.710Z,994.57
2017-12-30T01:23:45.815Z,994.54
2017-12-30T01:24:11.954Z,994.56
2017-12-30T01:24:38.094Z,994.67
2017-12-30T01:25:04.152Z,994.65
2017-12-30T01:25:30.251Z,994.65
2017-12-30T01:25:56.354Z,994.64
2017-12-30T01:26:22.472Z,994.71
2017-12-30T01:26:48.573Z,994.72
2017-12-30T01:27:14.689Z,994.61
2017-12-30T01:27:40.794Z,994.64
2017-12-30T01:28:06.891Z,994.63
2017-12-30T01:28:32.995Z,994.65
2017-12-30T01:28:59.093Z,994.65
2017-12-30T01:29:25.192Z,994.61
2017-12-30T01:29:51.293Z,994.58
2017-12-30T01:30:17.395Z,994.67
2017-12-30T01:30:43.498Z,994.67
2017-12-30T01:31:09.596Z,994.62
2017-12-30T01:31:35.694Z,994.63
2017-12-30T01:32:01.797Z,994.65
2017-12-30T01:32:27.894Z,994.58
2017-12-30T01:32:53.997Z,994.78
2017-12-30T01:33:20.096Z,994.61
2017-12-30T01:33:46.215Z,994.73
2017-12-30T01:34:12.317Z,994.68
2017-12-30T01:34:38.422Z,994.64
2017-12-30T01:35:04.518Z,994.68
2017-12-30T01:35:30.623Z,994.63
2017-12-30T01:35:56.716Z,994.7
2017-12-30T01:36:22.820Z,994.77
2017-12-30T01:36:49.143Z,994.68
2017-12-30T01:37:15.242Z,994.64
2017-12-30T01:37:41.342Z,994.62
2017-12-30T01:38:07.438Z,994.59
2017-12-30T01:38:33.540Z,994.65
2017-12-30T01:38:59.644Z,994.61
2017-12-30T01:39:25.741Z,994.69
2017-12-30T01:39:51.842Z,994.61
2017-12-30T01:40:17.943Z,994.62
2017-12-30T01:40:44.045Z,994.66
2017-12-30T01:41:10.161Z,994.56
2017-12-30T01:41:36.267Z,994.62
2017-12-30T01:42:02.364Z,994.57
2017-12-30T01:42:28.471Z,994.6
2017-12-30T01:42:54.587Z,994.56
2017-12-30T01:43:20.686Z,994.52
2017-12-30T01:43:46.792Z,994.56
2017-12-30T01:44:12.904Z,994.57
2017-12-30T01:44:39.005Z,994.56
2017-12-30T01:45:05.108Z,994.57
2017-12-30T01:45:31.214Z,994.57
2017-12-30T01:45:57.309Z,994.59
2017-12-30T01:46:23.404Z,994.55
2017-12-30T01:46:49.512Z,994.6
2017-12-30T01:47:15.609Z,994.61
2017-12-30T01:47:41.711Z,994.62
2017-12-30T01:48:07.824Z,994.67
2017-12-30T01:48:33.928Z,994.55
2017-12-30T01:49:00.035Z,994.54
2017-12-30T01:49:26.150Z,994.67
2017-12-30T01:49:52.248Z,994.54
2017-12-30T01:50:18.351Z,994.62
2017-12-30T01:50:44.454Z,994.67
2017-12-30T01:51:10.547Z,994.59
2017-12-30T01:51:36.652Z,994.63
2017-12-30T01:52:02.769Z,994.62
2017-12-30T01:52:28.871Z,994.64
2017-12-30T01:52:54.976Z,994.67
2017-12-30T01:53:21.089Z,994.68
2017-12-30T01:53:47.186Z,994.59
2017-12-30T01:54:13.284Z,994.64
2017-12-30T01:54:39.382Z,994.7
2017-12-30T01:55:05.481Z,994.64
2017-12-30T01:55:31.576Z,994.65
2017-12-30T01:55:57.678Z,994.61
2017-12-30T01:56:23.786Z,994.67
2017-12-30T01:56:49.888Z,994.62
2017-12-30T01:57:15.989Z,994.56
2017-12-30T01:57:42.095Z,994.65
2017-12-30T01:58:08.193Z,994.56
2017-12-30T01:58:34.291Z,994.6
2017-12-30T01:59:00.387Z,994.66
2017-12-30T01:59:26.485Z,994.65
2017-12-30T01:59:52.589Z,994.64
2017-12-30T02:00:18.680Z,994.69
2017-12-30T02:00:44.784Z,994.6
2017-12-30T02:01:10.882Z,994.69
2017-12-30T02:01:36.985Z,994.69
2017-12-30T02:02:03.084Z,994.69
2017-12-30T02:02:29.180Z,994.7
2017-12-30T02:02:55.319Z,994.71
2017-12-30T02:03:21.419Z,994.69
2017-12-30T02:03:47.521Z,994.63
2017-12-30T02:04:13.619Z,994.67
2017-12-30T02:04:39.736Z,994.68
2017-12-30T02:05:05.843Z,994.63
2017-12-30T02:05:31.949Z,994.6
2017-12-30T02:05:58.054Z,994.64
2017-12-30T02:06:24.158Z,994.58
2017-12-30T02:06:50.276Z,994.56
2017-12-30T02:07:16.377Z,994.62
2017-12-30T02:07:42.474Z,994.55
2017-12-30T02:08:08.574Z,994.51
2017-12-30T02:08:34.683Z,994.58
2017-12-30T02:09:00.789Z,994.5
2017-12-30T02:09:26.880Z,994.53
2017-12-30T02:09:52.978Z,994.57
2017-12-30T02:10:19.083Z,994.54
2017-12-30T02:10:45.181Z,994.55
2017-12-30T02:11:11.283Z,994.62
2017-12-30T02:11:37.381Z,994.55
2017-12-30T02:12:03.486Z,994.48
2017-12-30T02:12:29.588Z,994.49
2017-12-30T02:12:55.686Z,994.52
2017-12-30T02:13:21.789Z,994.48
2017-12-30T02:13:47.893Z,994.55
2017-12-30T02:14:13.989Z,994.54
2017-12-30T02:14:40.093Z,994.43
2017-12-30T02:15:06.196Z,994.53
2017-12-30T02:15:32.293Z,994.52
2017-12-30T02:15:58.397Z,994.48
2017-12-30T02:16:24.492Z,994.55
2017-12-30T02:16:50.598Z,994.55
2017-12-30T02:17:16.697Z,994.55
2017-12-30T02:17:42.800Z,994.48
2017-12-30T02:18:08.901Z,994.48
2017-12-30T02:18:34.999Z,994.46
2017-12-30T02:19:01.106Z,994.45
2017-12-30T02:19:27.222Z,994.43
2017-12-30T02:19:53.324Z,994.53
2017-12-30T02:20:19.425Z,994.47
2017-12-30T02:20:45.550Z,994.51
2017-12-30T02:21:11.645Z,994.42
2017-12-30T02:21:37.749Z,994.43
2017-12-30T02:22:03.852Z,994.45
2017-12-30T02:22:29.947Z,994.38
2017-12-30T02:22:56.049Z,994.41
2017-12-30T02:23:22.152Z,994.42
2017-12-30T02:23:48.246Z,994.4
2017-12-30T02:24:14.349Z,994.32
2017-12-30T02:24:40.450Z,994.42
2017-12-30T02:25:06.554Z,994.33
2017-12-30T02:25:32.649Z,994.34
2017-12-30T02:25:58.750Z,994.4
2017-12-30T02:26:24.876Z,994.3
2017-12-30T02:26:50.973Z,994.35
2017-12-30T02:27:17.077Z,994.38
2017-12-30T02:27:43.183Z,994.33
2017-12-30T02:28:09.286Z,994.4
2017-12-30T02:28:35.380Z,994.36
2017-12-30T02:29:01.478Z,994.32
2017-12-30T02:29:27.579Z,994.44
2017-12-30T02:29:53.698Z,994.34
2017-12-30T02:30:19.800Z,994.38
2017-12-30T02:30:45.896Z,994.35
2017-12-30T02:31:12.001Z,994.26
2017-12-30T02:31:38.108Z,994.36
2017-12-30T02:32:04.207Z,994.35
2017-12-30T02:32:30.315Z,994.39
2017-12-30T02:32:56.409Z,994.39
2017-12-30T02:33:22.502Z,994.39
2017-12-30T02:33:48.610Z,994.37
2017-12-30T02:34:14.708Z,994.38
2017-12-30T02:34:40.818Z,994.33
2017-12-30T02:35:06.916Z,994.34
2017-12-30T02:35:33.036Z,994.48
2017-12-30T02:35:59.131Z,994.31
2017-12-30T02:36:25.232Z,994.4
2017-12-30T02:36:51.350Z,994.35
2017-12-30T02:37:17.452Z,994.35
2017-12-30T02:37:43.548Z,994.32
2017-12-30T02:38:09.651Z,994.24
2017-12-30T02:38:35.752Z,994.33
2017-12-30T02:39:01.852Z,994.25
2017-12-30T02:39:27.953Z,994.31
2017-12-30T02:39:54.055Z,994.29
2017-12-30T02:40:20.156Z,994.29
2017-12-30T02:40:46.258Z,994.28
2017-12-30T02:41:12.361Z,994.3
2017-12-30T02:41:38.455Z,994.21
2017-12-30T02:42:04.560Z,994.19
2017-12-30T02:42:30.674Z,994.3
2017-12-30T02:42:56.780Z,994.24
2017-12-30T02:43:22.879Z,994.35
2017-12-30T02:43:48.993Z,994.26
2017-12-30T02:44:15.097Z,994.26
2017-12-30T02:44:41.199Z,994.16
2017-12-30T02:45:07.308Z,994.19
2017-12-30T02:45:33.411Z,994.21
2017-12-30T02:45:59.518Z,994.23
2017-12-30T02:46:25.632Z,994.23
2017-12-30T02:46:51.732Z,994.25
2017-12-30T02:47:17.827Z,994.19
2017-12-30T02:47:43.940Z,994.21
2017-12-30T02:48:10.033Z,994.2
2017-12-30T02:48:36.128Z,994.18
2017-12-30T02:49:02.230Z,994.23
2017-12-30T02:49:28.330Z,994.16
2017-12-30T02:49:54.435Z,994.12
2017-12-30T02:50:20.539Z,994.16
2017-12-30T02:50:46.642Z,994.13
2017-12-30T02:51:12.745Z,994.17
2017-12-30T02:51:38.839Z,994.23
2017-12-30T02:52:04.957Z,994.28
2017-12-30T02:52:31.062Z,994.2
2017-12-30T02:52:57.157Z,994.36
2017-12-30T02:53:23.255Z,994.2
2017-12-30T02:53:49.355Z,994.25
2017-12-30T02:54:15.460Z,994.31
2017-12-30T02:54:41.564Z,994.28
2017-12-30T02:55:07.653Z,994.16
2017-12-30T02:55:33.761Z,994.26
2017-12-30T02:55:59.859Z,994.31
2017-12-30T02:56:25.978Z,994.28
2017-12-30T02:56:52.072Z,994.33
2017-12-30T02:57:18.177Z,994.23
2017-12-30T02:57:44.284Z,994.28
2017-12-30T02:58:10.379Z,994.24
2017-12-30T02:58:36.486Z,994.31
2017-12-30T02:59:02.581Z,994.26
2017-12-30T02:59:28.679Z,994.32
2017-12-30T02:59:54.781Z,994.32
2017-12-30T03:00:20.877Z,994.36
2017-12-30T03:00:46.982Z,994.31
2017-12-30T03:01:13.082Z,994.28
2017-12-30T03:01:39.174Z,994.27
2017-12-30T03:02:05.280Z,994.26
2017-12-30T03:02:31.379Z,994.26
2017-12-30T03:02:57.488Z,994.28
2017-12-30T03:03:23.594Z,994.29
2017-12-30T03:03:49.693Z,994.29
2017-12-30T03:04:15.799Z,994.31
2017-12-30T03:04:41.899Z,994.23
2017-12-30T03:05:08.016Z,994.24
2017-12-30T03:05:34.116Z,994.21
2017-12-30T03:06:00.211Z,994.22
2017-12-30T03:06:26.314Z,994.17
2017-12-30T03:06:52.413Z,994.2
2017-12-30T03:07:18.513Z,994.15
2017-12-30T03:07:44.611Z,994.14
2017-12-30T03:08:10.712Z,994.12
2017-12-30T03:08:36.812Z,994.15
2017-12-30T03:09:02.909Z,994.09
2017-12-30T03:09:29.012Z,994.12
2017-12-30T03:09:55.110Z,994.09
2017-12-30T03:10:21.212Z,994.04
2017-12-30T03:10:47.324Z,994.11
2017-12-30T03:11:13.440Z,994.09
2017-12-30T03:11:39.547Z,994.14
2017-12-30T03:12:05.659Z,994.09
2017-12-30T03:12:31.765Z,994.01
2017-12-30T03:12:57.854Z,994.05
2017-12-30T03:13:23.953Z,994.04
2017-12-30T03:13:50.059Z,994.11
2017-12-30T03:14:16.153Z,994
2017-12-30T03:14:42.260Z,994.03
2017-12-30T03:15:08.348Z,994.02
2017-12-30T03:15:34.454Z,993.99
2017-12-30T03:16:00.555Z,994.05
2017-12-30T03:16:26.659Z,994.01
2017-12-30T03:16:52.757Z,994.04
2017-12-30T03:17:18.869Z,994.05
2017-12-30T03:17:44.990Z,994.08
2017-12-30T03:18:11.090Z,994.04
2017-12-30T03:18:37.182Z,994.07
2017-12-30T03:19:03.304Z,994.04
2017-12-30T03:19:29.407Z,994.09
2017-12-30T03:19:55.503Z,994.04
2017-12-30T03:20:21.603Z,994.06
2017-12-30T03:20:47.702Z,994.09
2017-12-30T03:21:13.806Z,994.1
2017-12-30T03:21:39.902Z,994.14
2017-12-30T03:22:06.006Z,994.13
2017-12-30T03:22:32.106Z,994.01
2017-12-30T03:22:58.202Z,994.11
2017-12-30T03:23:24.309Z,994.05
2017-12-30T03:23:50.407Z,994.02
2017-12-30T03:24:16.521Z,994.02
2017-12-30T03:24:42.623Z,994.06
2017-12-30T03:25:08.724Z,993.99
2017-12-30T03:25:34.845Z,994.1
2017-12-30T03:26:00.944Z,994.04
2017-12-30T03:26:27.047Z,994.06
2017-12-30T03:26:53.146Z,994.14
2017-12-30T03:27:19.253Z,994.09
2017-12-30T03:27:45.350Z,994.12
2017-12-30T03:28:11.449Z,994.19
2017-12-30T03:28:37.553Z,994.17
2017-12-30T03:29:03.651Z,994.13
2017-12-30T03:29:29.754Z,994.14
2017-12-30T03:29:55.853Z,994.07
2017-12-30T03:30:22.065Z,994.16
2017-12-30T03:30:48.059Z,994.1
2017-12-30T03:31:14.154Z,994.16
2017-12-30T03:31:40.254Z,994.06
2017-12-30T03:32:06.354Z,994.11
2017-12-30T03:32:32.451Z,994.12
2017-12-30T03:32:58.558Z,994.05
2017-12-30T03:33:24.653Z,994.1
2017-12-30T03:33:50.755Z,994.12
2017-12-30T03:34:16.877Z,994.03
2017-12-30T03:34:42.973Z,994.28
2017-12-30T03:35:09.073Z,994.05
2017-12-30T03:35:35.174Z,994.12
2017-12-30T03:36:01.274Z,994.09
2017-12-30T03:36:27.372Z,994.17
2017-12-30T03:36:53.478Z,994.17
2017-12-30T03:37:19.573Z,994.18
2017-12-30T03:37:45.668Z,994.28
2017-12-30T03:38:11.770Z,994.2
2017-12-30T03:38:37.869Z,994.19
2017-12-30T03:39:04.009Z,994.18
2017-12-30T03:39:30.068Z,994.16
2017-12-30T03:39:56.173Z,994.1
2017-12-30T03:40:22.266Z,994.12
2017-12-30T03:40:48.382Z,994.16
2017-12-30T03:41:14.483Z,994.12
2017-12-30T03:41:40.584Z,994.13
2017-12-30T03:42:06.690Z,994.07
2017-12-30T03:42:32.790Z,994.08
2017-12-30T03:42:58.894Z,994.1
2017-12-30T03:43:24.990Z,994.12
2017-12-30T03:43:51.108Z,994.13
2017-12-30T03:44:17.211Z,994.11
2017-12-30T03:44:43.308Z,994.11
2017-12-30T03:45:09.411Z,994.07
2017-12-30T03:45:35.512Z,994.12
2017-12-30T03:46:01.612Z,994.09
2017-12-30T03:46:27.707Z,994.11
2017-12-30T03:46:53.811Z,994.19
2017-12-30T03:47:19.912Z,994.13
2017-12-30T03:47:46.010Z,994.11
2017-12-30T03:48:12.129Z,994.12
2017-12-30T03:48:38.226Z,994.09
2017-12-30T03:49:04.326Z,994.08
2017-12-30T03:49:30.428Z,994.1
2017-12-30T03:49:56.527Z,994.13
2017-12-30T03:50:22.633Z,994.14
2017-12-30T03:50:48.728Z,994.1
2017-12-30T03:51:14.851Z,994.06
2017-12-30T03:51:40.948Z,994.12
2017-12-30T03:52:07.050Z,994.08
2017-12-30T03:52:33.155Z,994.06
2017-12-30T03:52:59.251Z,994.1
2017-12-30T03:53:25.351Z,994.04
2017-12-30T03:53:51.456Z,994.02
2017-12-30T03:54:17.551Z,994.02
2017-12-30T03:54:43.654Z,993.99
2017-12-30T03:55:09.752Z,994.01
2017-12-30T03:55:35.855Z,993.97
2017-12-30T03:56:01.957Z,994.06
2017-12-30T03:56:28.058Z,994.2
2017-12-30T03:56:54.155Z,994.09
2017-12-30T03:57:20.254Z,994.11
2017-12-30T03:57:46.351Z,994.11
2017-12-30T03:58:12.459Z,994.09
2017-12-30T03:58:38.562Z,994.13
2017-12-30T03:59:04.660Z,994.16
2017-12-30T03:59:30.754Z,994.07
2017-12-30T03:59:56.856Z,994.08
2017-12-30T04:00:22.947Z,994.11
2017-12-30T04:00:49.053Z,994.09
2017-12-30T04:01:15.151Z,994.13
2017-12-30T04:01:41.258Z,994.09
2017-12-30T04:02:07.376Z,994.15
2017-12-30T04:02:33.468Z,994.06
2017-12-30T04:02:59.574Z,994.12
2017-12-30T04:03:25.673Z,994.05
2017-12-30T04:03:51.777Z,994.07
2017-12-30T04:04:17.877Z,994.06
2017-12-30T04:04:43.975Z,994
2017-12-30T04:05:10.078Z,994.02
2017-12-30T04:05:36.174Z,994.03
2017-12-30T04:06:02.279Z,994.12
2017-12-30T04:06:28.395Z,994.18
2017-12-30T04:06:54.490Z,994.06
2017-12-30T04:07:20.585Z,994.07
2017-12-30T04:07:46.689Z,994.1
2017-12-30T04:08:12.785Z,994.1
2017-12-30T04:08:38.885Z,994.1
2017-12-30T04:09:04.981Z,994.1
2017-12-30T04:09:31.087Z,994.07
2017-12-30T04:09:57.187Z,994.09
2017-12-30T04:10:23.287Z,994.03
2017-12-30T04:10:49.385Z,994.1
2017-12-30T04:11:15.491Z,994.02
2017-12-30T04:11:41.590Z,994.05
2017-12-30T04:12:07.728Z,994
2017-12-30T04:12:33.845Z,994.03
2017-12-30T04:12:59.939Z,994.04
2017-12-30T04:13:26.060Z,994.06
2017-12-30T04:13:52.158Z,994.1
2017-12-30T04:14:18.259Z,994.01
2017-12-30T04:14:44.355Z,993.98
2017-12-30T04:15:10.476Z,993.98
2017-12-30T04:15:36.572Z,994.01
2017-12-30T04:16:02.669Z,994.13
2017-12-30T04:16:28.777Z,994.06
2017-12-30T04:16:54.915Z,994.02
2017-12-30T04:17:21.018Z,994.03
2017-12-30T04:17:47.120Z,994.03
2017-12-30T04:18:13.215Z,994.04
2017-12-30T04:18:39.313Z,994.04
2017-12-30T04:19:05.415Z,994.04
2017-12-30T04:19:31.514Z,994.12
2017-12-30T04:19:57.614Z,994.07
2017-12-30T04:20:23.715Z,994.03
2017-12-30T04:20:49.810Z,994.12
2017-12-30T04:21:15.916Z,994.14
2017-12-30T04:21:42.018Z,994.05
2017-12-30T04:22:08.151Z,994.11
2017-12-30T04:22:34.257Z,994.07
2017-12-30T04:23:00.351Z,994.12
2017-12-30T04:23:26.451Z,994.1
2017-12-30T04:23:52.548Z,994.09
2017-12-30T04:24:18.647Z,994.09
2017-12-30T04:24:44.754Z,994.09
2017-12-30T04:25:10.852Z,994.05
2017-12-30T04:25:36.948Z,994.02
2017-12-30T04:26:03.046Z,994.04
2017-12-30T04:26:29.150Z,993.95
2017-12-30T04:26:55.251Z,994.14
2017-12-30T04:27:21.368Z,994.08
2017-12-30T04:27:47.471Z,994.11
2017-12-30T04:28:13.579Z,994.02
2017-12-30T04:28:39.669Z,994.02
2017-12-30T04:29:05.772Z,994.06
2017-12-30T04:29:31.870Z,994.05
2017-12-30T04:29:57.966Z,994.05
2017-12-30T04:30:24.071Z,994.08
2017-12-30T04:30:50.168Z,994.12
2017-12-30T04:31:16.272Z,994.07
2017-12-30T04:31:42.391Z,994.09
2017-12-30T04:32:08.495Z,994.1
2017-12-30T04:32:34.589Z,994.08
2017-12-30T04:33:00.687Z,994.05
2017-12-30T04:33:26.785Z,994.1
2017-12-30T04:33:52.885Z,994.09
2017-12-30T04:34:18.981Z,994.08
2017-12-30T04:34:45.085Z,994.13
2017-12-30T04:35:11.181Z,994.09
2017-12-30T04:35:37.284Z,994.11
2017-12-30T04:36:03.386Z,994.08
2017-12-30T04:36:29.482Z,994.12
2017-12-30T04:36:55.584Z,994.07
2017-12-30T04:37:21.691Z,994.08
2017-12-30T04:37:47.795Z,994.06
2017-12-30T04:38:13.887Z,994.07
2017-12-30T04:38:40.007Z,994.06
2017-12-30T04:39:06.106Z,994.11
2017-12-30T04:39:32.204Z,994.09
2017-12-30T04:39:58.298Z,994.15
2017-12-30T04:40:24.416Z,994.12
2017-12-30T04:40:50.514Z,994.02
2017-12-30T04:41:16.618Z,994.02
2017-12-30T04:41:42.721Z,994.04
2017-12-30T04:42:08.815Z,994.03
2017-12-30T04:42:34.918Z,994
2017-12-30T04:43:01.016Z,994.04
2017-12-30T04:43:27.120Z,994.02
2017-12-30T04:43:53.221Z,994.02
2017-12-30T04:44:19.320Z,994.02
2017-12-30T04:44:45.414Z,994.05
2017-12-30T04:45:11.513Z,993.95
2017-12-30T04:45:37.613Z,993.92
2017-12-30T04:46:03.709Z,993.95
2017-12-30T04:46:29.813Z,993.94
2017-12-30T04:46:55.917Z,993.96
2017-12-30T04:47:22.015Z,993.92
2017-12-30T04:47:48.114Z,993.86
2017-12-30T04:48:14.215Z,993.9
2017-12-30T04:48:40.321Z,993.83
2017-12-30T04:49:06.423Z,993.91
2017-12-30T04:49:32.522Z,993.85
2017-12-30T04:49:58.628Z,993.86
2017-12-30T04:50:24.723Z,993.85
2017-12-30T04:50:50.822Z,993.85
2017-12-30T04:51:16.945Z,993.84
2017-12-30T04:51:43.046Z,993.83
2017-12-30T04:52:09.164Z,993.82
2017-12-30T04:52:35.261Z,993.79
2017-12-30T04:53:01.365Z,993.8
2017-12-30T04:53:27.461Z,993.77
2017-12-30T04:53:53.564Z,993.75
2017-12-30T04:54:19.656Z,993.76
2017-12-30T04:54:45.759Z,993.78
2017-12-30T04:55:11.862Z,993.74
2017-12-30T04:55:37.960Z,993.8
2017-12-30T04:56:04.057Z,993.77
2017-12-30T04:56:30.159Z,993.76
2017-12-30T04:56:56.261Z,993.8
2017-12-30T04:57:22.362Z,993.87
2017-12-30T04:57:48.478Z,993.79
2017-12-30T04:58:14.573Z,993.82
2017-12-30T04:58:40.672Z,993.78
2017-12-30T04:59:06.778Z,993.83
2017-12-30T04:59:32.891Z,993.84
2017-12-30T04:59:58.997Z,993.81
2017-12-30T05:00:25.107Z,993.8
2017-12-30T05:00:51.204Z,993.82
2017-12-30T05:01:17.303Z,993.82
2017-12-30T05:01:43.400Z,993.79
2017-12-30T05:02:09.503Z,993.78
2017-12-30T05:02:35.601Z,993.84
2017-12-30T05:03:01.697Z,993.82
2017-12-30T05:03:27.801Z,993.8
2017-12-30T05:03:53.896Z,993.78
2017-12-30T05:04:20.002Z,993.79
2017-12-30T05:04:46.112Z,993.77
2017-12-30T05:05:12.215Z,993.79
2017-12-30T05:05:38.320Z,993.78
2017-12-30T05:06:04.420Z,993.75
2017-12-30T05:06:30.520Z,993.74
2017-12-30T05:06:56.617Z,993.75
2017-12-30T05:07:22.715Z,993.76
2017-12-30T05:07:48.820Z,993.76
2017-12-30T05:08:14.920Z,993.84
2017-12-30T05:08:41.020Z,993.78
2017-12-30T05:09:07.118Z,993.82
2017-12-30T05:09:33.239Z,993.79
2017-12-30T05:09:59.338Z,993.78
2017-12-30T05:10:25.435Z,993.76
2017-12-30T05:10:51.539Z,993.8
2017-12-30T05:11:17.684Z,993.81
2017-12-30T05:11:43.741Z,993.76
2017-12-30T05:12:09.838Z,993.78
2017-12-30T05:12:35.936Z,993.78
2017-12-30T05:13:02.035Z,993.74
2017-12-30T05:13:28.130Z,993.76
2017-12-30T05:13:54.234Z,993.8
2017-12-30T05:14:20.335Z,993.8
2017-12-30T05:14:46.441Z,993.78
2017-12-30T05:15:12.535Z,993.84
2017-12-30T05:15:38.634Z,993.72
2017-12-30T05:16:04.740Z,993.75
2017-12-30T05:16:30.837Z,993.74
2017-12-30T05:16:56.941Z,993.78
2017-12-30T05:17:23.040Z,993.75
2017-12-30T05:17:49.140Z,993.74
2017-12-30T05:18:15.243Z,993.72
2017-12-30T05:18:41.341Z,993.76
2017-12-30T05:19:07.450Z,993.72
2017-12-30T05:19:33.551Z,993.69
2017-12-30T05:19:59.652Z,993.71
2017-12-30T05:20:25.746Z,993.71
2017-12-30T05:20:51.851Z,993.66
2017-12-30T05:21:17.949Z,993.71
2017-12-30T05:21:44.052Z,993.63
2017-12-30T05:22:10.153Z,993.68
2017-12-30T05:22:36.245Z,993.66
2017-12-30T05:23:02.339Z,993.67
2017-12-30T05:23:28.442Z,993.65
2017-12-30T05:23:54.543Z,993.72
2017-12-30T05:24:20.638Z,993.75
2017-12-30T05:24:46.742Z,993.7
2017-12-30T05:25:12.841Z,993.76
2017-12-30T05:25:38.943Z,993.75
2017-12-30T05:26:05.058Z,993.73
2017-12-30T05:26:31.163Z,993.74